CYSK

Sanikiluaq Airport

Sanikiluaq, Canada
METAR CYSK 180800Z 24016KT 6SM -SN DRSN FEW015 OVC040 M14/M17 A2953 RMK SC2SC6 CALL OUT SLP004
Observed Flight Rules
Dec-18 @ 08:00 UTC (56 minutes ago) Visual Flight Rules
Wind Visibility Clouds Conditions
240° at 16 knots 6 miles
  • Few at 1,500' AGL
  • Overcast at 4,000' AGL
  • Light Snow
  • Low drifting
  • Snow
Temperatures Readings
Current -14°C / 7°F
Dewpoint -17°C / 1°F
Humidity 78%
Altimeter 29.53" Hg
Pressure 1000.4 hPa
Elevation 26
METAR CYSK 180800Z 24016KT 6SM -SN DRSN FEW015 OVC040 M14/M17 A2953 RMK SC2SC6 CALL OUT SLP004
Observed Flight Rules
Dec-18 @ 08:00 UTC
(56 minutes ago)
VFR
Wind Visibility
240° at 16 knots 6 miles
Clouds
  • Few at 1,500' AGL
  • Overcast at 4,000' AGL
Conditions
  • Light Snow
  • Low drifting
  • Snow
Temperature Dewpoint
-14°C / 7°F -17°C / 1°F
Humidity Altimeter Pressure
78% 29.53" Hg 1000.4 hPa